Time;durP1;ratioP1;P1;durP2;ratioP2;P2;SDS_P1;SDS_P2;PMS_P1;PMS_P2;Temp;Humidity;BMP_temperature;BMP_pressure;BME280_temperature;BME280_humidity;BME280_pressure;Samples;Min_cycle;Max_cycle;Signal;HPM_P1;HPM_P2
2023/12/29 00:02:26;;;;;;;34.60;3.83;;;;;;;;;;4985068;28;20129;-66
2023/12/29 00:04:54;;;;;;;35.97;4.43;;;;;;;;;;4986603;28;20478;-67
2023/12/29 00:07:22;;;;;;;40.72;4.22;;;;;;;;;;4990484;28;20058;-66
2023/12/29 00:09:49;;;;;;;35.08;4.07;;;;;;;;;;4970368;28;20054;-66
2023/12/29 00:12:17;;;;;;;35.90;4.43;;;;;;;;;;4982444;28;20047;-66
2023/12/29 00:14:44;;;;;;;32.42;3.55;;;;;;;;;;4988748;28;20497;-67
2023/12/29 00:17:11;;;;;;;41.40;4.72;;;;;;;;;;4983782;28;20120;-67
2023/12/29 00:19:39;;;;;;;25.60;3.63;;;;;;;;;;4990306;28;20046;-66
2023/12/29 00:22:06;;;;;;;39.60;5.03;;;;;;;;;;4988895;28;20050;-66
2023/12/29 00:24:35;;;;;;;33.85;4.20;;;;;;;;;;4986948;28;20069;-70
2023/12/29 00:27:02;;;;;;;27.40;3.63;;;;;;;;;;4985389;28;20059;-70
2023/12/29 00:29:32;;;;;;;29.83;4.18;;;;;;;;;;4989887;28;20122;-69
2023/12/29 00:32:00;;;;;;;37.08;4.30;;;;;;;;;;4984185;28;20058;-70
2023/12/29 00:34:27;;;;;;;32.55;4.28;;;;;;;;;;4991434;28;20066;-70
2023/12/29 00:36:54;;;;;;;27.55;3.65;;;;;;;;;;4972994;28;20046;-70
2023/12/29 00:39:28;;;;;;;31.88;4.25;;;;;;;;;;4982629;28;20486;-71
2023/12/29 00:41:57;;;;;;;23.65;3.97;;;;;;;;;;4989648;28;20078;-70
2023/12/29 00:44:24;;;;;;;34.88;4.80;;;;;;;;;;4991674;28;20083;-70
2023/12/29 00:46:51;;;;;;;30.15;3.67;;;;;;;;;;4985297;28;20065;-69
2023/12/29 00:49:18;;;;;;;34.70;4.43;;;;;;;;;;4992319;28;20054;-70
2023/12/29 00:51:46;;;;;;;20.95;3.53;;;;;;;;;;4988202;28;20054;-71
2023/12/29 00:54:13;;;;;;;27.58;3.38;;;;;;;;;;4991538;28;20046;-71
2023/12/29 00:56:40;;;;;;;29.65;4.28;;;;;;;;;;4989807;28;20130;-70
2023/12/29 00:59:09;;;;;;;25.90;3.80;;;;;;;;;;4990260;28;20065;-71
2023/12/29 01:01:36;;;;;;;32.50;4.47;;;;;;;;;;4985167;28;20050;-70
2023/12/29 01:04:04;;;;;;;29.73;4.72;;;;;;;;;;4984901;28;20054;-69
2023/12/29 01:06:31;;;;;;;18.00;2.63;;;;;;;;;;4986206;28;20409;-71
2023/12/29 01:08:58;;;;;;;30.23;3.85;;;;;;;;;;4965840;28;20047;-70
2023/12/29 01:11:25;;;;;;;24.27;2.70;;;;;;;;;;4990240;28;20054;-70
2023/12/29 01:13:53;;;;;;;27.80;4.40;;;;;;;;;;4989674;28;20054;-69
2023/12/29 01:16:21;;;;;;;24.33;2.83;;;;;;;;;;4991429;28;20397;-71
2023/12/29 01:18:48;;;;;;;26.75;3.00;;;;;;;;;;4987522;28;20120;-70
2023/12/29 01:21:16;;;;;;;29.33;3.50;;;;;;;;;;4989624;28;20054;-70
2023/12/29 01:23:43;;;;;;;31.02;4.55;;;;;;;;;;4989411;28;20050;-69
2023/12/29 01:26:10;;;;;;;26.20;3.35;;;;;;;;;;4990679;28;20052;-70
2023/12/29 01:28:38;;;;;;;30.20;4.57;;;;;;;;;;4987822;28;20053;-69
2023/12/29 01:31:05;;;;;;;22.30;3.88;;;;;;;;;;4972567;28;20057;-69
2023/12/29 01:33:34;;;;;;;25.95;3.42;;;;;;;;;;4990262;28;20767;-67
2023/12/29 01:36:01;;;;;;;24.90;3.78;;;;;;;;;;4989108;28;20046;-67
2023/12/29 01:38:28;;;;;;;24.55;3.10;;;;;;;;;;4985822;28;20053;-66
2023/12/29 01:40:56;;;;;;;21.55;3.78;;;;;;;;;;4988681;28;20756;-66
2023/12/29 01:43:23;;;;;;;26.33;3.35;;;;;;;;;;4988289;28;20052;-66
2023/12/29 01:45:50;;;;;;;22.30;2.92;;;;;;;;;;4986393;28;20054;-67
2023/12/29 01:48:17;;;;;;;27.00;3.53;;;;;;;;;;4989682;28;20047;-66
2023/12/29 01:50:46;;;;;;;32.35;3.13;;;;;;;;;;4987597;28;20374;-66
2023/12/29 01:53:14;;;;;;;20.90;2.53;;;;;;;;;;4988928;28;20054;-66
2023/12/29 01:55:41;;;;;;;22.65;3.10;;;;;;;;;;4989192;28;20051;-66
2023/12/29 01:58:08;;;;;;;17.95;2.42;;;;;;;;;;4987222;28;20042;-66
2023/12/29 02:00:36;;;;;;;22.35;3.35;;;;;;;;;;4986400;28;20050;-66
2023/12/29 02:03:04;;;;;;;29.67;3.58;;;;;;;;;;4987920;28;20450;-67
2023/12/29 02:05:32;;;;;;;23.40;3.17;;;;;;;;;;4988815;28;20506;-67
2023/12/29 02:08:02;;;;;;;25.27;3.17;;;;;;;;;;4988079;28;20050;-66
2023/12/29 02:10:29;;;;;;;27.67;3.22;;;;;;;;;;4988074;28;20066;-68
2023/12/29 02:12:59;;;;;;;22.60;2.83;;;;;;;;;;4988922;28;20490;-67
2023/12/29 02:15:26;;;;;;;24.33;3.40;;;;;;;;;;4988963;28;20141;-66
2023/12/29 02:17:58;;;;;;;24.48;2.92;;;;;;;;;;4975703;28;20065;-67
2023/12/29 02:20:26;;;;;;;23.77;2.95;;;;;;;;;;4968623;28;20054;-67
2023/12/29 02:22:53;;;;;;;22.30;3.95;;;;;;;;;;4988525;28;20068;-66
2023/12/29 02:25:21;;;;;;;30.85;3.20;;;;;;;;;;4987529;28;20133;-67
2023/12/29 02:27:52;;;;;;;23.00;3.63;;;;;;;;;;4987341;28;20050;-66
2023/12/29 02:30:24;;;;;;;29.30;4.25;;;;;;;;;;4988256;28;20054;-66
2023/12/29 02:32:52;;;;;;;25.85;3.30;;;;;;;;;;4985884;28;20066;-67
2023/12/29 02:35:20;;;;;;;25.50;2.97;;;;;;;;;;4968600;28;20417;-66
2023/12/29 02:37:48;;;;;;;34.75;3.60;;;;;;;;;;4988398;28;20054;-67
2023/12/29 02:40:16;;;;;;;30.10;4.78;;;;;;;;;;4976472;28;20038;-66
2023/12/29 02:42:48;;;;;;;32.63;4.03;;;;;;;;;;4987906;28;20154;-68
2023/12/29 02:45:15;;;;;;;30.35;3.55;;;;;;;;;;4982768;28;20065;-67
2023/12/29 02:47:43;;;;;;;41.17;5.50;;;;;;;;;;4989133;28;20057;-67
2023/12/29 02:50:10;;;;;;;24.15;3.25;;;;;;;;;;4989303;28;20101;-66
2023/12/29 02:52:38;;;;;;;34.45;4.57;;;;;;;;;;4986060;28;20042;-66
2023/12/29 02:55:05;;;;;;;25.88;3.13;;;;;;;;;;4987745;28;20205;-67
2023/12/29 02:57:33;;;;;;;30.85;3.72;;;;;;;;;;4982945;28;20046;-66
2023/12/29 03:00:01;;;;;;;30.65;4.43;;;;;;;;;;4984001;28;20046;-66
2023/12/29 03:02:29;;;;;;;35.47;4.15;;;;;;;;;;4985026;28;20495;-66
2023/12/29 03:04:56;;;;;;;22.63;3.75;;;;;;;;;;4983524;28;20049;-66
2023/12/29 03:07:23;;;;;;;22.55;2.72;;;;;;;;;;4983010;28;20050;-66
2023/12/29 03:09:50;;;;;;;30.48;4.47;;;;;;;;;;4983312;28;20057;-66
2023/12/29 03:12:18;;;;;;;22.83;3.90;;;;;;;;;;4984014;28;20047;-66
2023/12/29 03:14:47;;;;;;;28.45;3.40;;;;;;;;;;4983613;28;20054;-67
2023/12/29 03:17:15;;;;;;;21.33;3.53;;;;;;;;;;4987577;28;20082;-68
2023/12/29 03:19:42;;;;;;;32.63;3.50;;;;;;;;;;4972325;28;20057;-67
2023/12/29 03:22:10;;;;;;;35.78;3.88;;;;;;;;;;4991676;28;20053;-66
2023/12/29 03:24:37;;;;;;;26.33;3.70;;;;;;;;;;4991141;28;20046;-67
2023/12/29 03:27:04;;;;;;;25.98;3.50;;;;;;;;;;4987206;28;20046;-66
2023/12/29 03:29:32;;;;;;;24.02;3.75;;;;;;;;;;4990078;28;20149;-67
2023/12/29 03:31:59;;;;;;;29.40;3.47;;;;;;;;;;4992374;28;20050;-66
2023/12/29 03:34:28;;;;;;;26.65;3.60;;;;;;;;;;4969572;28;20065;-66
2023/12/29 03:36:55;;;;;;;29.67;3.13;;;;;;;;;;4981827;28;20050;-67
2023/12/29 03:39:23;;;;;;;27.40;3.70;;;;;;;;;;4989276;28;20046;-67
2023/12/29 03:41:50;;;;;;;21.88;3.33;;;;;;;;;;4979432;28;20051;-66
2023/12/29 03:44:17;;;;;;;23.17;3.67;;;;;;;;;;4970977;28;20074;-67
2023/12/29 03:46:45;;;;;;;23.65;3.10;;;;;;;;;;4987952;28;20101;-66
2023/12/29 03:49:12;;;;;;;20.35;3.38;;;;;;;;;;4991376;28;20053;-67
2023/12/29 03:51:41;;;;;;;26.60;3.70;;;;;;;;;;4991834;28;20046;-66
2023/12/29 03:54:08;;;;;;;27.35;4.55;;;;;;;;;;4990265;28;20043;-67
2023/12/29 03:56:35;;;;;;;21.13;3.75;;;;;;;;;;4990615;28;20049;-66
2023/12/29 03:59:02;;;;;;;20.42;3.28;;;;;;;;;;4993209;28;20080;-67
2023/12/29 04:01:29;;;;;;;23.50;3.35;;;;;;;;;;4974422;28;20079;-66
2023/12/29 04:03:57;;;;;;;24.40;4.40;;;;;;;;;;4974562;28;20461;-66
2023/12/29 04:06:24;;;;;;;24.35;3.42;;;;;;;;;;4990074;28;20065;-67
2023/12/29 04:08:52;;;;;;;24.50;3.05;;;;;;;;;;4991666;28;20512;-67
2023/12/29 04:11:20;;;;;;;32.03;4.40;;;;;;;;;;4987907;28;20054;-67
2023/12/29 04:13:47;;;;;;;31.85;3.70;;;;;;;;;;4985837;28;20058;-66
2023/12/29 04:16:15;;;;;;;24.52;3.05;;;;;;;;;;4991456;28;20092;-67
2023/12/29 04:18:42;;;;;;;23.17;3.25;;;;;;;;;;4992106;28;20140;-66
2023/12/29 04:21:14;;;;;;;21.67;3.08;;;;;;;;;;4970265;28;20054;-67
2023/12/29 04:23:42;;;;;;;26.55;3.50;;;;;;;;;;4990867;28;20815;-66
2023/12/29 04:26:11;;;;;;;31.15;4.10;;;;;;;;;;4986930;28;20551;-66
2023/12/29 04:28:38;;;;;;;26.88;3.38;;;;;;;;;;4989988;28;20084;-66
2023/12/29 04:31:05;;;;;;;25.25;3.60;;;;;;;;;;4986127;28;20050;-66
2023/12/29 04:33:33;;;;;;;22.77;3.08;;;;;;;;;;4987129;28;20050;-66
2023/12/29 04:36:00;;;;;;;28.17;3.47;;;;;;;;;;4989850;28;20046;-67
2023/12/29 04:38:27;;;;;;;29.65;3.63;;;;;;;;;;4989820;28;20054;-66
2023/12/29 04:40:54;;;;;;;22.25;4.22;;;;;;;;;;4983475;28;20062;-67
2023/12/29 04:43:23;;;;;;;23.00;4.43;;;;;;;;;;4989373;28;20334;-67
2023/12/29 04:45:50;;;;;;;23.27;3.60;;;;;;;;;;4988595;28;20050;-67
2023/12/29 04:48:17;;;;;;;30.98;4.40;;;;;;;;;;4991500;28;20056;-66
2023/12/29 04:50:45;;;;;;;38.50;5.43;;;;;;;;;;4991626;28;20403;-67
2023/12/29 04:53:12;;;;;;;28.35;3.80;;;;;;;;;;4990788;28;20073;-67
2023/12/29 04:55:39;;;;;;;26.25;3.45;;;;;;;;;;4990534;28;20104;-67
2023/12/29 04:58:06;;;;;;;22.88;2.80;;;;;;;;;;4990153;28;20054;-66
2023/12/29 05:00:35;;;;;;;27.88;4.00;;;;;;;;;;4989749;28;20070;-66
2023/12/29 05:03:02;;;;;;;27.50;3.15;;;;;;;;;;4990564;28;20481;-70
2023/12/29 05:05:29;;;;;;;25.27;3.63;;;;;;;;;;4989783;28;20050;-70
2023/12/29 05:07:57;;;;;;;24.70;3.90;;;;;;;;;;4986247;28;20072;-70
2023/12/29 05:10:24;;;;;;;19.25;2.85;;;;;;;;;;4970222;28;20066;-70
2023/12/29 05:12:51;;;;;;;32.45;3.80;;;;;;;;;;4984821;28;20485;-70
2023/12/29 05:15:21;;;;;;;25.83;2.95;;;;;;;;;;4965626;28;20065;-70
2023/12/29 05:17:50;;;;;;;30.17;4.15;;;;;;;;;;4986406;28;20078;-71
2023/12/29 05:20:17;;;;;;;29.17;3.85;;;;;;;;;;4988044;28;20046;-70
2023/12/29 05:22:44;;;;;;;20.67;3.17;;;;;;;;;;4977229;28;20054;-70
2023/12/29 05:25:11;;;;;;;28.85;4.55;;;;;;;;;;4987058;28;20062;-70
2023/12/29 05:27:39;;;;;;;40.88;4.35;;;;;;;;;;4987290;28;20057;-69
2023/12/29 05:30:07;;;;;;;25.63;3.80;;;;;;;;;;4989684;28;20058;-71
2023/12/29 05:32:34;;;;;;;28.02;4.40;;;;;;;;;;4988208;28;20046;-70
2023/12/29 05:35:02;;;;;;;35.88;4.72;;;;;;;;;;4988579;28;20050;-71
2023/12/29 05:37:30;;;;;;;31.90;3.95;;;;;;;;;;4985431;28;20545;-70
2023/12/29 05:39:57;;;;;;;33.55;3.80;;;;;;;;;;4968481;28;20495;-71
2023/12/29 05:42:24;;;;;;;34.45;3.70;;;;;;;;;;4989719;28;20146;-70
2023/12/29 05:44:51;;;;;;;26.23;3.60;;;;;;;;;;4987155;28;20050;-71
2023/12/29 05:47:19;;;;;;;27.55;4.18;;;;;;;;;;4988125;28;20057;-70
2023/12/29 05:49:46;;;;;;;24.55;3.15;;;;;;;;;;4989186;28;20536;-70
2023/12/29 05:52:15;;;;;;;26.40;3.78;;;;;;;;;;4971417;28;20074;-70
2023/12/29 05:54:42;;;;;;;38.90;4.38;;;;;;;;;;4973547;28;20065;-70
2023/12/29 05:57:10;;;;;;;22.00;3.00;;;;;;;;;;4971874;28;20066;-71
2023/12/29 05:59:37;;;;;;;24.92;4.55;;;;;;;;;;4989843;28;20050;-70
2023/12/29 06:02:05;;;;;;;34.88;4.07;;;;;;;;;;4988595;28;20057;-70
2023/12/29 06:04:31;;;;;;;25.42;3.40;;;;;;;;;;4989053;28;20050;-71
2023/12/29 06:06:58;;;;;;;30.90;4.82;;;;;;;;;;4988834;28;20575;-70
2023/12/29 06:09:27;;;;;;;36.35;4.95;;;;;;;;;;4986375;28;20047;-70
2023/12/29 06:11:54;;;;;;;30.42;4.07;;;;;;;;;;4978832;28;20057;-70
2023/12/29 06:14:21;;;;;;;26.70;3.75;;;;;;;;;;4981323;28;20050;-71
2023/12/29 06:16:49;;;;;;;33.40;3.78;;;;;;;;;;4981105;28;20077;-70
2023/12/29 06:19:16;;;;;;;29.67;3.85;;;;;;;;;;4986092;28;20506;-70
2023/12/29 06:21:43;;;;;;;28.80;3.85;;;;;;;;;;4983942;28;20062;-69
2023/12/29 06:24:11;;;;;;;25.05;3.25;;;;;;;;;;4986146;28;20061;-69
2023/12/29 06:26:42;;;;;;;25.92;3.95;;;;;;;;;;4985949;28;20065;-70
2023/12/29 06:29:10;;;;;;;31.13;3.72;;;;;;;;;;4988161;28;20173;-70
2023/12/29 06:31:37;;;;;;;30.20;4.43;;;;;;;;;;4988441;28;20053;-70
2023/12/29 06:34:04;;;;;;;33.45;3.85;;;;;;;;;;4971768;28;20050;-69
2023/12/29 06:36:32;;;;;;;25.70;3.40;;;;;;;;;;4988548;28;20541;-70
2023/12/29 06:38:59;;;;;;;25.95;3.67;;;;;;;;;;4970785;28;20046;-71
2023/12/29 06:41:27;;;;;;;34.53;3.72;;;;;;;;;;4987410;28;20053;-70
2023/12/29 06:43:55;;;;;;;28.42;4.05;;;;;;;;;;4983926;28;20077;-70
2023/12/29 06:46:23;;;;;;;31.05;3.45;;;;;;;;;;4983049;28;20054;-70
2023/12/29 06:48:50;;;;;;;33.65;4.15;;;;;;;;;;4982933;28;20057;-70
2023/12/29 06:51:18;;;;;;;24.77;3.17;;;;;;;;;;4983822;28;20049;-70
2023/12/29 06:53:47;;;;;;;27.00;3.08;;;;;;;;;;4987561;28;20050;-71
2023/12/29 06:56:15;;;;;;;31.35;5.30;;;;;;;;;;4985548;28;20054;-71
2023/12/29 06:58:43;;;;;;;34.65;3.70;;;;;;;;;;4985507;28;20109;-69
2023/12/29 07:01:11;;;;;;;23.83;3.25;;;;;;;;;;4981988;28;20050;-71
2023/12/29 07:03:39;;;;;;;31.13;4.38;;;;;;;;;;4988446;28;20050;-71
2023/12/29 07:06:06;;;;;;;25.00;3.67;;;;;;;;;;4987812;28;20081;-70
2023/12/29 07:08:33;;;;;;;34.90;4.60;;;;;;;;;;4982743;28;20054;-70
2023/12/29 07:11:01;;;;;;;34.88;4.00;;;;;;;;;;4981599;28;20043;-71
2023/12/29 07:13:28;;;;;;;34.45;4.63;;;;;;;;;;4988325;28;20051;-70
2023/12/29 07:15:55;;;;;;;22.90;3.50;;;;;;;;;;4987333;28;20133;-70
2023/12/29 07:18:24;;;;;;;34.20;4.20;;;;;;;;;;4988652;28;20054;-70
2023/12/29 07:20:51;;;;;;;30.48;4.13;;;;;;;;;;4988535;28;20061;-71
2023/12/29 07:23:19;;;;;;;26.02;4.43;;;;;;;;;;4989303;28;20108;-70
2023/12/29 07:25:47;;;;;;;32.22;4.47;;;;;;;;;;4989602;28;20054;-70
2023/12/29 07:28:14;;;;;;;23.38;4.35;;;;;;;;;;4985892;28;20050;-71
2023/12/29 07:30:41;;;;;;;34.90;3.63;;;;;;;;;;4988203;28;20491;-70
2023/12/29 07:33:08;;;;;;;29.48;3.72;;;;;;;;;;4987218;28;20056;-70
2023/12/29 07:35:37;;;;;;;29.88;4.38;;;;;;;;;;4989206;28;20916;-71
2023/12/29 07:38:04;;;;;;;33.28;4.00;;;;;;;;;;4984855;28;20047;-70
2023/12/29 07:40:32;;;;;;;28.65;3.58;;;;;;;;;;4985325;28;20046;-71
2023/12/29 07:42:59;;;;;;;29.98;4.35;;;;;;;;;;4982884;28;20438;-70
2023/12/29 07:45:26;;;;;;;22.85;2.63;;;;;;;;;;4987513;28;20058;-71
2023/12/29 07:47:53;;;;;;;26.85;3.63;;;;;;;;;;4987830;28;20396;-69
2023/12/29 07:50:20;;;;;;;20.63;2.80;;;;;;;;;;4974803;28;20057;-71
2023/12/29 07:52:49;;;;;;;24.80;3.47;;;;;;;;;;4985716;28;20131;-70
2023/12/29 07:55:17;;;;;;;31.17;3.10;;;;;;;;;;4971472;28;20050;-70
2023/12/29 07:57:46;;;;;;;27.88;3.20;;;;;;;;;;4968439;28;20051;-70
2023/12/29 08:00:14;;;;;;;28.02;3.15;;;;;;;;;;4988616;28;20080;-71
2023/12/29 08:02:41;;;;;;;28.50;4.03;;;;;;;;;;4988714;28;20050;-71
2023/12/29 08:05:09;;;;;;;22.50;2.78;;;;;;;;;;4983860;28;20054;-70
2023/12/29 08:07:37;;;;;;;25.70;3.10;;;;;;;;;;4991995;28;20077;-71
2023/12/29 08:10:06;;;;;;;22.25;3.30;;;;;;;;;;4991441;28;20050;-70
2023/12/29 08:12:34;;;;;;;23.45;3.38;;;;;;;;;;4987558;28;20068;-71
2023/12/29 08:15:02;;;;;;;19.92;3.03;;;;;;;;;;4991226;28;20061;-71
2023/12/29 08:17:30;;;;;;;19.48;3.05;;;;;;;;;;4992442;28;20070;-70
2023/12/29 08:19:58;;;;;;;30.38;3.35;;;;;;;;;;4990255;28;20082;-71
2023/12/29 08:22:25;;;;;;;20.27;3.05;;;;;;;;;;4992939;28;20054;-70
2023/12/29 08:24:52;;;;;;;20.83;3.17;;;;;;;;;;4988761;28;20055;-71
2023/12/29 08:27:25;;;;;;;26.58;3.17;;;;;;;;;;4992238;28;20042;-70
2023/12/29 08:29:53;;;;;;;24.70;3.30;;;;;;;;;;4991404;28;20046;-71
2023/12/29 08:32:21;;;;;;;21.73;2.88;;;;;;;;;;4992282;28;20047;-70
2023/12/29 08:34:48;;;;;;;21.20;2.60;;;;;;;;;;4989950;28;20062;-67
2023/12/29 08:37:19;;;;;;;16.67;2.50;;;;;;;;;;4992244;28;20054;-69
2023/12/29 08:39:47;;;;;;;16.52;2.35;;;;;;;;;;4989897;28;20048;-67
2023/12/29 08:42:14;;;;;;;18.63;2.63;;;;;;;;;;4991134;28;20112;-67
2023/12/29 08:44:43;;;;;;;17.35;1.67;;;;;;;;;;4992122;28;20054;-67
2023/12/29 08:47:10;;;;;;;22.45;2.47;;;;;;;;;;4991204;28;20065;-66
2023/12/29 08:49:38;;;;;;;18.55;3.03;;;;;;;;;;4992691;28;20053;-67
2023/12/29 08:52:05;;;;;;;27.00;2.53;;;;;;;;;;4971157;28;20046;-67
2023/12/29 08:54:32;;;;;;;18.75;2.58;;;;;;;;;;4991928;28;20536;-67
2023/12/29 08:57:00;;;;;;;18.40;2.53;;;;;;;;;;4990336;28;20057;-68
2023/12/29 08:59:27;;;;;;;19.40;3.00;;;;;;;;;;4991291;28;20046;-67
2023/12/29 09:01:55;;;;;;;20.77;3.15;;;;;;;;;;4989958;28;20054;-68
2023/12/29 09:04:23;;;;;;;15.75;2.50;;;;;;;;;;4990599;28;20054;-67
2023/12/29 09:06:50;;;;;;;24.30;3.60;;;;;;;;;;4990414;28;20072;-68
2023/12/29 09:09:17;;;;;;;20.63;3.58;;;;;;;;;;4974133;28;20058;-66
2023/12/29 09:11:46;;;;;;;26.50;4.10;;;;;;;;;;4984179;28;20043;-66
2023/12/29 09:14:13;;;;;;;21.98;3.10;;;;;;;;;;4987086;28;20525;-67
2023/12/29 09:16:42;;;;;;;16.63;3.55;;;;;;;;;;4991043;28;20161;-67
2023/12/29 09:19:10;;;;;;;27.20;3.25;;;;;;;;;;4991143;28;20057;-67
2023/12/29 09:21:38;;;;;;;24.83;3.60;;;;;;;;;;4988913;28;20061;-67
2023/12/29 09:24:05;;;;;;;27.75;3.30;;;;;;;;;;4989899;28;20697;-68
2023/12/29 09:26:33;;;;;;;18.95;2.90;;;;;;;;;;4991297;28;20069;-67
2023/12/29 09:29:00;;;;;;;20.80;3.05;;;;;;;;;;4990299;28;20055;-67
2023/12/29 09:31:28;;;;;;;22.33;3.78;;;;;;;;;;4984350;28;20486;-67
2023/12/29 09:33:56;;;;;;;24.23;3.40;;;;;;;;;;4989440;28;20050;-67
2023/12/29 09:36:25;;;;;;;17.90;2.53;;;;;;;;;;4985414;28;20054;-67
2023/12/29 09:38:52;;;;;;;18.50;3.00;;;;;;;;;;4990755;28;20541;-67
2023/12/29 09:41:20;;;;;;;23.85;3.35;;;;;;;;;;4989235;28;20043;-67
2023/12/29 09:43:50;;;;;;;27.42;3.63;;;;;;;;;;4990361;28;20042;-70
2023/12/29 09:46:18;;;;;;;14.05;2.42;;;;;;;;;;4990896;28;20043;-71
2023/12/29 09:48:46;;;;;;;21.02;2.47;;;;;;;;;;4985085;28;20077;-71
2023/12/29 09:51:15;;;;;;;28.13;3.05;;;;;;;;;;4986462;28;20050;-71
2023/12/29 09:53:43;;;;;;;23.73;2.92;;;;;;;;;;4968344;28;20057;-71
2023/12/29 09:56:11;;;;;;;21.90;3.10;;;;;;;;;;4984620;28;20050;-71
2023/12/29 09:58:39;;;;;;;23.70;2.88;;;;;;;;;;4987206;28;20050;-71
2023/12/29 10:01:06;;;;;;;16.35;2.80;;;;;;;;;;4988206;28;20046;-71
2023/12/29 10:03:34;;;;;;;19.55;2.50;;;;;;;;;;4980534;28;20442;-71
2023/12/29 10:06:02;;;;;;;22.52;2.90;;;;;;;;;;4989857;28;20134;-71
2023/12/29 10:08:29;;;;;;;23.95;2.35;;;;;;;;;;4990283;28;20046;-70
2023/12/29 10:10:59;;;;;;;20.67;2.30;;;;;;;;;;4985964;28;20130;-71
2023/12/29 10:13:28;;;;;;;18.42;2.40;;;;;;;;;;4985619;28;20069;-71
2023/12/29 10:15:58;;;;;;;24.55;2.90;;;;;;;;;;4988452;28;20050;-71
2023/12/29 10:18:29;;;;;;;22.35;2.85;;;;;;;;;;4985786;28;20390;-70
2023/12/29 10:20:59;;;;;;;14.98;2.30;;;;;;;;;;4988936;28;20046;-70
2023/12/29 10:23:30;;;;;;;19.33;2.95;;;;;;;;;;4990136;28;20047;-70
2023/12/29 10:25:59;;;;;;;14.63;2.85;;;;;;;;;;4988091;28;20058;-71
2023/12/29 10:28:26;;;;;;;14.18;1.98;;;;;;;;;;4987062;28;20517;-70
2023/12/29 10:30:53;;;;;;;16.48;2.13;;;;;;;;;;4989130;28;20067;-71
2023/12/29 10:33:22;;;;;;;22.20;2.22;;;;;;;;;;4972176;28;20136;-70
2023/12/29 10:36:01;;;;;;;17.40;2.28;;;;;;;;;;4986233;28;20720;-70
2023/12/29 10:38:28;;;;;;;16.40;2.55;;;;;;;;;;4989049;28;20054;-71
2023/12/29 10:40:56;;;;;;;14.20;2.15;;;;;;;;;;4984695;28;20054;-71
2023/12/29 10:43:25;;;;;;;13.70;1.80;;;;;;;;;;4986552;28;20046;-71
2023/12/29 10:46:07;;;;;;;19.45;2.22;;;;;;;;;;4989209;28;20046;-71
2023/12/29 10:48:34;;;;;;;16.45;2.10;;;;;;;;;;4984385;28;20062;-71
2023/12/29 10:51:03;;;;;;;15.25;2.80;;;;;;;;;;4988434;28;20395;-70
2023/12/29 10:53:31;;;;;;;19.08;2.30;;;;;;;;;;4990169;28;20046;-71
2023/12/29 10:55:59;;;;;;;15.65;2.10;;;;;;;;;;4988570;28;20477;-71
2023/12/29 10:58:29;;;;;;;14.23;2.10;;;;;;;;;;4989378;28;20062;-69
2023/12/29 11:00:56;;;;;;;12.55;1.63;;;;;;;;;;4989389;28;20733;-70
2023/12/29 11:03:25;;;;;;;13.15;1.90;;;;;;;;;;4989454;28;20057;-70
2023/12/29 11:05:52;;;;;;;16.20;2.03;;;;;;;;;;4989026;28;20426;-71
2023/12/29 11:08:20;;;;;;;13.02;2.75;;;;;;;;;;4986748;28;20062;-71
2023/12/29 11:10:49;;;;;;;17.08;2.10;;;;;;;;;;4985995;28;20079;-70
2023/12/29 11:13:16;;;;;;;21.60;2.05;;;;;;;;;;4989217;28;20126;-72
2023/12/29 11:15:46;;;;;;;23.35;2.67;;;;;;;;;;4989022;28;20806;-70
2023/12/29 11:18:14;;;;;;;18.08;2.13;;;;;;;;;;4989505;28;20050;-71
2023/12/29 11:20:42;;;;;;;11.95;2.03;;;;;;;;;;4987355;28;20042;-71
2023/12/29 11:23:10;;;;;;;14.63;1.70;;;;;;;;;;4983202;28;20055;-70
2023/12/29 11:25:39;;;;;;;20.23;2.50;;;;;;;;;;4981550;28;20579;-70
2023/12/29 11:28:08;;;;;;;17.23;2.55;;;;;;;;;;4985253;28;20100;-70
2023/12/29 11:30:35;;;;;;;14.20;1.67;;;;;;;;;;4988837;28;20448;-70
2023/12/29 11:33:05;;;;;;;20.58;2.05;;;;;;;;;;4988637;28;20054;-71
2023/12/29 11:35:35;;;;;;;16.42;2.28;;;;;;;;;;4989236;28;20485;-71
2023/12/29 11:38:10;;;;;;;25.33;2.97;;;;;;;;;;4988422;28;21455;-71
2023/12/29 11:40:39;;;;;;;18.20;2.33;;;;;;;;;;4989572;28;20050;-71
2023/12/29 11:43:08;;;;;;;12.00;2.90;;;;;;;;;;4991538;28;20100;-71
2023/12/29 11:45:37;;;;;;;16.90;2.33;;;;;;;;;;4993075;28;20053;-71
2023/12/29 11:48:06;;;;;;;14.20;1.83;;;;;;;;;;4993577;28;20060;-71
2023/12/29 11:50:34;;;;;;;15.15;2.13;;;;;;;;;;4991501;28;20406;-70
2023/12/29 11:53:01;;;;;;;13.32;1.52;;;;;;;;;;4992812;28;20544;-71
2023/12/29 11:55:33;;;;;;;17.50;2.20;;;;;;;;;;4991937;28;20058;-71
2023/12/29 11:58:00;;;;;;;15.68;2.30;;;;;;;;;;4992051;28;20046;-70
2023/12/29 12:00:46;;;;;;;18.65;2.10;;;;;;;;;;4991900;28;20056;-71
2023/12/29 12:03:27;;;;;;;13.85;1.95;;;;;;;;;;4985078;28;20078;-66
2023/12/29 12:05:56;;;;;;;17.30;2.05;;;;;;;;;;4987016;28;20056;-66
2023/12/29 12:08:30;;;;;;;23.45;2.95;;;;;;;;;;4974436;28;20054;-65
2023/12/29 12:10:58;;;;;;;16.42;3.17;;;;;;;;;;4974813;28;20064;-66
2023/12/29 12:13:44;;;;;;;13.07;1.77;;;;;;;;;;4993177;28;20050;-66
2023/12/29 12:16:11;;;;;;;15.23;2.28;;;;;;;;;;4975330;28;20054;-65
2023/12/29 12:18:41;;;;;;;15.20;2.70;;;;;;;;;;4993358;28;20137;-67
2023/12/29 12:21:09;;;;;;;10.80;2.08;;;;;;;;;;4992630;28;20054;-66
2023/12/29 12:23:37;;;;;;;17.23;2.60;;;;;;;;;;4976179;28;20046;-66
2023/12/29 12:26:06;;;;;;;17.10;2.85;;;;;;;;;;4992582;28;20057;-67
2023/12/29 12:28:33;;;;;;;17.92;2.53;;;;;;;;;;4993166;28;20057;-65
2023/12/29 12:31:08;;;;;;;12.98;2.30;;;;;;;;;;4992425;28;20143;-66
2023/12/29 12:33:36;;;;;;;18.15;2.85;;;;;;;;;;4992659;28;20405;-66
2023/12/29 12:36:04;;;;;;;19.30;2.70;;;;;;;;;;4992344;28;20043;-65
2023/12/29 12:38:33;;;;;;;15.15;2.30;;;;;;;;;;4992430;28;20126;-66
2023/12/29 12:41:10;;;;;;;15.07;2.15;;;;;;;;;;4972949;28;20134;-65
2023/12/29 12:43:40;;;;;;;21.05;2.60;;;;;;;;;;4992142;28;20508;-66
2023/12/29 12:46:11;;;;;;;21.73;2.70;;;;;;;;;;4987597;28;20417;-65
2023/12/29 12:48:43;;;;;;;18.38;2.40;;;;;;;;;;4972726;28;20062;-66
2023/12/29 12:51:12;;;;;;;20.13;2.70;;;;;;;;;;4991848;28;20559;-66
2023/12/29 12:53:41;;;;;;;24.67;2.92;;;;;;;;;;4974691;28;20046;-66
2023/12/29 12:56:08;;;;;;;19.95;2.58;;;;;;;;;;4992016;28;20042;-66
2023/12/29 12:58:36;;;;;;;19.05;2.53;;;;;;;;;;4991955;28;20054;-65
2023/12/29 13:01:03;;;;;;;12.05;1.95;;;;;;;;;;4990303;28;20058;-65
2023/12/29 13:03:31;;;;;;;21.02;3.00;;;;;;;;;;4992698;28;20572;-65
2023/12/29 13:05:59;;;;;;;15.80;2.45;;;;;;;;;;4992302;28;20050;-65
2023/12/29 13:08:28;;;;;;;20.73;2.35;;;;;;;;;;4991930;28;20046;-67
2023/12/29 13:10:55;;;;;;;20.23;2.28;;;;;;;;;;4968257;28;20062;-66
2023/12/29 13:13:23;;;;;;;23.60;2.72;;;;;;;;;;4976046;28;20050;-66
2023/12/29 13:15:50;;;;;;;23.70;2.72;;;;;;;;;;4975808;28;20054;-65
2023/12/29 13:18:17;;;;;;;22.20;3.05;;;;;;;;;;4969657;28;20062;-68
2023/12/29 13:20:45;;;;;;;18.90;2.65;;;;;;;;;;4975882;28;20065;-65
2023/12/29 13:23:13;;;;;;;19.30;2.92;;;;;;;;;;4992132;28;20105;-65
2023/12/29 13:25:42;;;;;;;20.88;2.67;;;;;;;;;;4980594;28;20046;-66
2023/12/29 13:28:09;;;;;;;18.08;2.65;;;;;;;;;;4973296;28;20422;-65
2023/12/29 13:30:37;;;;;;;19.13;2.83;;;;;;;;;;4974102;28;20050;-66
2023/12/29 13:33:10;;;;;;;14.38;2.97;;;;;;;;;;4973821;28;20046;-67
2023/12/29 13:35:39;;;;;;;13.40;2.60;;;;;;;;;;4985187;28;20046;-66
2023/12/29 13:38:09;;;;;;;18.42;2.17;;;;;;;;;;4990491;28;20065;-65
2023/12/29 13:40:39;;;;;;;19.05;3.20;;;;;;;;;;4990848;28;20053;-66
2023/12/29 13:43:10;;;;;;;23.23;2.75;;;;;;;;;;4975542;28;20053;-66
2023/12/29 13:45:38;;;;;;;14.25;1.90;;;;;;;;;;4991405;28;20101;-66
2023/12/29 13:48:06;;;;;;;15.93;3.90;;;;;;;;;;4983403;28;20050;-66
2023/12/29 13:50:34;;;;;;;19.85;2.78;;;;;;;;;;4986553;28;20421;-66
2023/12/29 13:53:01;;;;;;;19.63;2.85;;;;;;;;;;4972988;28;20063;-66
2023/12/29 13:55:28;;;;;;;22.33;2.65;;;;;;;;;;4971899;28;20089;-65
2023/12/29 13:57:56;;;;;;;26.20;2.45;;;;;;;;;;4973832;28;20054;-66
2023/12/29 14:00:25;;;;;;;14.70;1.65;;;;;;;;;;4990123;28;20478;-65
2023/12/29 14:02:59;;;;;;;20.92;2.88;;;;;;;;;;4973338;28;20058;-66
2023/12/29 14:05:29;;;;;;;17.10;2.05;;;;;;;;;;4989380;28;20049;-66
2023/12/29 14:08:01;;;;;;;22.67;2.30;;;;;;;;;;4973631;28;20054;-67
2023/12/29 14:10:30;;;;;;;25.55;3.08;;;;;;;;;;4986423;28;20053;-66
2023/12/29 14:13:05;;;;;;;18.70;3.45;;;;;;;;;;4972266;28;20054;-66
2023/12/29 14:15:36;;;;;;;16.20;2.65;;;;;;;;;;4987483;28;20533;-66
2023/12/29 14:18:06;;;;;;;16.48;2.17;;;;;;;;;;4987120;28;20050;-65
2023/12/29 14:20:36;;;;;;;16.55;2.10;;;;;;;;;;4972993;28;20065;-65
2023/12/29 14:23:04;;;;;;;19.67;2.28;;;;;;;;;;4990692;28;20516;-70
2023/12/29 14:25:35;;;;;;;16.90;2.33;;;;;;;;;;4990077;28;20054;-70
2023/12/29 14:28:02;;;;;;;16.23;2.40;;;;;;;;;;4988177;28;20050;-70
2023/12/29 14:30:31;;;;;;;19.15;2.30;;;;;;;;;;4987979;28;20121;-71
2023/12/29 14:33:00;;;;;;;12.73;2.47;;;;;;;;;;4988048;28;20528;-70
2023/12/29 14:35:27;;;;;;;20.55;2.72;;;;;;;;;;4987844;28;20100;-70
2023/12/29 14:37:54;;;;;;;20.63;2.47;;;;;;;;;;4989470;28;20058;-70